createdAt,value
2023-03-18T00:01:01.231Z,90.73
2023-03-18T00:02:03.845Z,90.77
2023-03-18T00:03:06.469Z,90.73
2023-03-18T00:04:08.667Z,90.63
2023-03-18T00:05:11.775Z,90.84
2023-03-18T00:06:16.645Z,90.79
2023-03-18T00:07:18.709Z,90.90
2023-03-18T00:08:20.840Z,91.13
2023-03-18T00:09:23.601Z,90.94
2023-03-18T00:10:25.598Z,91.22
2023-03-18T00:11:27.594Z,91.17
2023-03-18T00:12:29.711Z,90.89
2023-03-18T00:13:33.537Z,90.86
2023-03-18T00:14:37.204Z,90.77
2023-03-18T00:15:39.534Z,90.48
2023-03-18T00:16:41.778Z,90.70
2023-03-18T00:17:44.267Z,90.86
2023-03-18T00:18:46.671Z,91.30
2023-03-18T00:19:48.795Z,91.31
2023-03-18T00:20:51.001Z,91.41
2023-03-18T00:21:52.968Z,91.42
2023-03-18T00:22:55.291Z,91.37
2023-03-18T00:23:58.031Z,91.12
2023-03-18T00:25:00.119Z,91.06
2023-03-18T00:26:02.840Z,91.04
2023-03-18T00:27:05.082Z,90.94
2023-03-18T00:28:09.401Z,91.26
2023-03-18T00:29:11.525Z,91.22
2023-03-18T00:30:14.224Z,91.22
2023-03-18T00:31:18.268Z,91.17
2023-03-18T00:32:20.239Z,91.34
2023-03-18T00:33:22.462Z,91.33
2023-03-18T00:34:25.523Z,91.11
2023-03-18T00:35:28.049Z,91.18
2023-03-18T00:36:31.166Z,91.43
2023-03-18T00:37:33.370Z,91.12
2023-03-18T00:38:36.537Z,91.19
2023-03-18T00:39:38.436Z,91.27
2023-03-18T00:40:42.042Z,91.36
2023-03-18T00:41:43.912Z,91.32
2023-03-18T00:42:46.677Z,91.17
2023-03-18T00:43:49.184Z,90.94
2023-03-18T00:44:51.178Z,90.93
2023-03-18T00:45:53.039Z,91.15
2023-03-18T00:46:55.203Z,91.03
2023-03-18T00:47:57.210Z,90.93
2023-03-18T00:49:01.386Z,90.88
2023-03-18T00:50:05.042Z,91.18
2023-03-18T00:51:06.924Z,91.21
2023-03-18T00:52:09.105Z,91.10
2023-03-18T00:53:10.980Z,91.09
2023-03-18T00:54:14.126Z,90.86
2023-03-18T00:55:16.220Z,90.88
2023-03-18T00:56:20.071Z,91.07
2023-03-18T00:57:22.210Z,91.04
2023-03-18T00:58:25.185Z,90.73
2023-03-18T00:59:27.175Z,90.62
2023-03-18T01:00:30.140Z,91.27
2023-03-18T01:01:33.387Z,91.20
2023-03-18T01:02:35.264Z,91.25
2023-03-18T01:03:37.330Z,91.10
2023-03-18T01:04:39.328Z,91.16
2023-03-18T01:05:41.672Z,91.17
2023-03-18T01:06:43.659Z,91.04
2023-03-18T01:07:46.945Z,91.06
2023-03-18T01:08:50.070Z,90.92
2023-03-18T01:09:52.294Z,90.63
2023-03-18T01:10:54.524Z,90.71
2023-03-18T01:11:56.408Z,90.58
2023-03-18T01:12:58.300Z,90.67
2023-03-18T01:14:00.754Z,90.75
2023-03-18T01:15:03.635Z,90.68
2023-03-18T01:16:07.505Z,90.69
2023-03-18T01:17:10.102Z,90.59
2023-03-18T01:18:12.049Z,90.51
2023-03-18T01:19:14.405Z,90.54
2023-03-18T01:20:18.867Z,90.94
2023-03-18T01:21:21.265Z,91.00
2023-03-18T01:22:23.160Z,90.79
2023-03-18T01:23:25.375Z,90.20
2023-03-18T01:24:27.953Z,90.29
2023-03-18T01:25:30.239Z,90.22
2023-03-18T01:26:32.617Z,90.28
2023-03-18T01:27:35.318Z,89.85
2023-03-18T01:28:37.644Z,89.77
2023-03-18T01:29:39.659Z,89.81
2023-03-18T01:30:42.681Z,89.78
2023-03-18T01:31:44.725Z,90.38
2023-03-18T01:32:46.789Z,90.48
2023-03-18T01:33:48.899Z,90.19
2023-03-18T01:34:50.871Z,90.11
2023-03-18T01:35:56.224Z,90.26
2023-03-18T01:36:58.808Z,90.19
2023-03-18T01:39:03.171Z,90.58
2023-03-18T01:40:08.325Z,90.90
2023-03-18T01:41:11.547Z,90.89
2023-03-18T01:42:14.629Z,90.66
2023-03-18T01:43:21.590Z,91.10
2023-03-18T01:44:24.255Z,91.08
2023-03-18T01:45:30.565Z,91.11
2023-03-18T01:46:39.113Z,91.22
2023-03-18T01:47:41.641Z,90.86
2023-03-18T01:48:43.921Z,91.30
2023-03-18T01:49:48.880Z,91.40
2023-03-18T01:50:57.994Z,91.14
2023-03-18T01:52:15.760Z,91.55
2023-03-18T01:53:20.342Z,91.38
2023-03-18T01:54:25.107Z,91.66
2023-03-18T01:55:29.946Z,91.46
2023-03-18T01:56:34.865Z,91.60
2023-03-18T01:57:39.504Z,91.78
2023-03-18T01:58:45.004Z,91.77
2023-03-18T01:59:50.149Z,91.75
2023-03-18T02:00:55.965Z,91.41
2023-03-18T02:02:10.641Z,91.69
2023-03-18T02:03:12.573Z,91.62
2023-03-18T02:04:16.075Z,91.52
2023-03-18T02:05:21.607Z,91.37
2023-03-18T02:06:26.764Z,91.18
2023-03-18T02:07:31.620Z,91.41
2023-03-18T02:08:37.221Z,91.56
2023-03-18T02:09:39.414Z,90.97
2023-03-18T02:10:42.342Z,90.57
2023-03-18T02:11:47.004Z,90.61
2023-03-18T02:12:55.791Z,90.11
2023-03-18T02:13:59.913Z,89.90
2023-03-18T02:15:05.713Z,89.62
2023-03-18T02:17:29.319Z,89.16
2023-03-18T02:18:34.716Z,88.88
2023-03-18T02:19:40.429Z,88.56
2023-03-18T02:21:14.710Z,88.38
2023-03-18T02:22:35.891Z,88.52
2023-03-18T02:24:09.195Z,88.33
2023-03-18T02:25:20.568Z,88.23
2023-03-18T02:26:26.452Z,88.09
2023-03-18T02:27:32.162Z,87.84
2023-03-18T02:28:36.719Z,87.56
2023-03-18T02:29:41.249Z,87.45
2023-03-18T02:30:46.707Z,87.23
2023-03-18T02:31:49.793Z,87.24
2023-03-18T02:32:54.437Z,87.34
2023-03-18T02:33:58.183Z,87.48
2023-03-18T02:35:03.853Z,87.16
2023-03-18T02:36:15.605Z,87.25
2023-03-18T02:37:17.538Z,87.24
2023-03-18T02:38:20.910Z,87.14
2023-03-18T02:39:23.158Z,87.04
2023-03-18T02:40:29.195Z,87.16
2023-03-18T02:41:34.942Z,87.09
2023-03-18T02:42:37.019Z,86.74
2023-03-18T02:43:39.084Z,86.72
2023-03-18T02:44:44.315Z,86.75
2023-03-18T02:45:55.864Z,86.67
2023-03-18T02:47:07.795Z,87.27
2023-03-18T02:48:13.970Z,87.10
2023-03-18T02:49:18.237Z,87.19
2023-03-18T02:50:20.533Z,86.95
2023-03-18T02:51:23.167Z,87.17
2023-03-18T02:52:25.062Z,87.20
2023-03-18T02:53:27.180Z,87.19
2023-03-18T02:54:31.013Z,87.23
2023-03-18T02:55:32.959Z,87.52
2023-03-18T02:56:37.359Z,87.47
2023-03-18T02:57:39.320Z,87.12
2023-03-18T02:58:42.584Z,87.03
2023-03-18T02:59:44.487Z,87.03
2023-03-18T03:00:46.873Z,86.89
2023-03-18T03:01:52.810Z,86.75
2023-03-18T03:02:56.451Z,86.67
2023-03-18T03:03:59.482Z,86.77
2023-03-18T03:05:01.625Z,86.67
2023-03-18T03:06:06.515Z,86.71
2023-03-18T03:07:08.769Z,86.88
2023-03-18T03:08:11.390Z,86.66
2023-03-18T03:09:15.696Z,86.68
2023-03-18T03:10:18.801Z,86.89
2023-03-18T03:11:21.724Z,86.95
2023-03-18T03:12:23.861Z,87.24
2023-03-18T03:13:26.683Z,87.15
2023-03-18T03:14:28.682Z,87.10
2023-03-18T03:15:30.620Z,87.16
2023-03-18T03:16:32.769Z,87.26
2023-03-18T03:17:36.371Z,87.38
2023-03-18T03:18:38.679Z,87.21
2023-03-18T03:19:41.335Z,87.33
2023-03-18T03:20:44.319Z,87.32
2023-03-18T03:21:46.248Z,87.39
2023-03-18T03:22:48.465Z,87.54
2023-03-18T03:23:50.729Z,87.74
2023-03-18T03:24:53.842Z,87.89
2023-03-18T03:25:55.856Z,87.87
2023-03-18T03:26:58.085Z,87.87
2023-03-18T03:28:01.116Z,87.70
2023-03-18T03:29:05.044Z,87.85
2023-03-18T03:30:10.148Z,87.81
2023-03-18T03:31:12.307Z,87.62
2023-03-18T03:32:14.674Z,87.60
2023-03-18T03:33:16.696Z,87.98
2023-03-18T03:34:18.564Z,87.82
2023-03-18T03:35:21.726Z,87.73
2023-03-18T03:36:24.113Z,87.74
2023-03-18T03:37:26.320Z,87.89
2023-03-18T03:38:28.218Z,88.08
2023-03-18T03:39:30.108Z,88.42
2023-03-18T03:40:33.368Z,88.47
2023-03-18T03:41:35.889Z,88.26
2023-03-18T03:42:39.003Z,87.94
2023-03-18T03:43:42.074Z,87.80
2023-03-18T03:44:45.165Z,87.82
2023-03-18T03:45:47.047Z,87.86
2023-03-18T03:46:49.808Z,87.96
2023-03-18T03:47:52.230Z,87.80
2023-03-18T03:48:55.330Z,87.86
2023-03-18T03:49:57.316Z,87.76
2023-03-18T03:51:01.374Z,88.20
2023-03-18T03:52:04.718Z,87.92
2023-03-18T03:53:06.925Z,87.91
2023-03-18T03:54:10.955Z,87.60
2023-03-18T03:55:16.072Z,87.69
2023-03-18T03:56:18.925Z,87.64
2023-03-18T03:57:21.762Z,88.07
2023-03-18T03:58:24.432Z,88.04
2023-03-18T03:59:26.351Z,88.17
2023-03-18T04:00:28.930Z,88.25
2023-03-18T04:01:31.104Z,88.11
2023-03-18T04:02:33.497Z,88.33
2023-03-18T04:03:36.994Z,88.30
2023-03-18T04:04:39.688Z,87.85
2023-03-18T04:05:41.701Z,87.65
2023-03-18T04:06:43.858Z,87.76
2023-03-18T04:07:47.867Z,87.60
2023-03-18T04:08:49.896Z,87.44
2023-03-18T04:09:52.610Z,87.46
2023-03-18T04:10:55.676Z,87.67
2023-03-18T04:11:57.597Z,87.65
2023-03-18T04:12:59.776Z,87.52
2023-03-18T04:14:01.698Z,87.47
2023-03-18T04:15:05.286Z,87.54
2023-03-18T04:16:07.696Z,87.63
2023-03-18T04:17:09.649Z,87.49
2023-03-18T04:18:11.672Z,87.44
2023-03-18T04:19:14.139Z,87.45
2023-03-18T04:20:17.467Z,87.25
2023-03-18T04:21:19.403Z,87.40
2023-03-18T04:22:21.229Z,87.27
2023-03-18T04:23:23.366Z,87.18
2023-03-18T04:24:25.237Z,87.39
2023-03-18T04:25:27.322Z,87.67
2023-03-18T04:26:29.941Z,87.59
2023-03-18T04:27:32.797Z,87.46
2023-03-18T04:28:34.960Z,87.52
2023-03-18T04:29:37.361Z,87.45
2023-03-18T04:30:39.918Z,87.35
2023-03-18T04:31:42.483Z,87.21
2023-03-18T04:32:44.570Z,87.37
2023-03-18T04:33:46.615Z,87.55
2023-03-18T04:34:49.334Z,87.30
2023-03-18T04:35:51.247Z,87.22
2023-03-18T04:36:53.901Z,87.47
2023-03-18T04:37:56.241Z,87.40
2023-03-18T04:38:58.128Z,87.25
2023-03-18T04:40:00.629Z,87.28
2023-03-18T04:41:04.466Z,87.39
2023-03-18T04:42:07.460Z,87.41
2023-03-18T04:43:09.394Z,87.50
2023-03-18T04:44:11.258Z,87.47
2023-03-18T04:45:14.680Z,87.76
2023-03-18T04:46:17.180Z,87.55
2023-03-18T04:47:19.084Z,87.53
2023-03-18T04:48:21.142Z,87.32
2023-03-18T04:49:23.181Z,87.05
2023-03-18T04:50:25.268Z,87.00
2023-03-18T04:51:27.163Z,86.75
2023-03-18T04:52:30.145Z,86.94
2023-03-18T04:53:32.146Z,86.93
2023-03-18T04:54:34.275Z,86.84
2023-03-18T04:55:37.379Z,86.89
2023-03-18T04:56:39.348Z,86.81
2023-03-18T04:57:42.283Z,87.02
2023-03-18T04:58:44.725Z,87.06
2023-03-18T04:59:46.737Z,86.92
2023-03-18T05:00:49.007Z,86.76
2023-03-18T05:01:52.003Z,86.87
2023-03-18T05:02:54.882Z,86.68
2023-03-18T05:03:58.895Z,86.71
2023-03-18T05:05:01.467Z,86.72
2023-03-18T05:06:03.980Z,86.92
2023-03-18T05:07:06.012Z,86.58
2023-03-18T05:08:07.926Z,86.86
2023-03-18T05:09:10.008Z,86.58
2023-03-18T05:10:12.684Z,86.45
2023-03-18T05:11:14.917Z,86.18
2023-03-18T05:12:16.801Z,85.87
2023-03-18T05:13:18.938Z,85.93
2023-03-18T05:14:20.828Z,86.03
2023-03-18T05:15:22.887Z,85.63
2023-03-18T05:16:24.984Z,85.51
2023-03-18T05:17:27.335Z,85.51
2023-03-18T05:18:29.515Z,85.14
2023-03-18T05:19:31.469Z,84.92
2023-03-18T05:20:34.004Z,84.68
2023-03-18T05:21:36.145Z,84.68
2023-03-18T05:22:38.478Z,84.93
2023-03-18T05:23:40.738Z,85.21
2023-03-18T05:24:43.878Z,85.26
2023-03-18T05:25:48.147Z,85.21
2023-03-18T05:26:50.238Z,85.21
2023-03-18T05:27:53.224Z,85.20
2023-03-18T05:28:55.323Z,84.94
2023-03-18T05:29:57.515Z,84.76
2023-03-18T05:30:59.793Z,85.05
2023-03-18T05:32:01.917Z,85.14
2023-03-18T05:33:05.209Z,84.77
2023-03-18T05:34:08.814Z,84.85
2023-03-18T05:35:11.497Z,84.88
2023-03-18T05:36:14.527Z,84.99
2023-03-18T05:37:18.533Z,85.25
2023-03-18T05:38:21.046Z,85.31
2023-03-18T05:39:23.083Z,85.22
2023-03-18T05:40:25.172Z,85.40
2023-03-18T05:41:27.080Z,85.45
2023-03-18T05:42:30.237Z,85.12
2023-03-18T05:43:32.368Z,85.04
2023-03-18T05:44:34.799Z,85.11
2023-03-18T05:45:40.065Z,85.15
2023-03-18T05:46:44.117Z,85.19
2023-03-18T05:47:46.208Z,85.26
2023-03-18T05:48:48.072Z,85.37
2023-03-18T05:49:50.099Z,85.76
2023-03-18T05:50:53.305Z,85.98
2023-03-18T05:51:55.417Z,86.21
2023-03-18T05:52:58.189Z,85.98
2023-03-18T05:54:00.254Z,85.84
2023-03-18T05:55:02.764Z,85.77
2023-03-18T05:56:05.841Z,85.55
2023-03-18T05:57:08.053Z,85.33
2023-03-18T05:58:10.221Z,85.54
2023-03-18T05:59:13.958Z,85.41
2023-03-18T06:00:17.389Z,85.69
2023-03-18T06:01:19.580Z,85.63
2023-03-18T06:02:21.634Z,85.94
2023-03-18T06:03:24.981Z,85.60
2023-03-18T06:04:27.402Z,85.68
2023-03-18T06:05:30.067Z,85.62
2023-03-18T06:06:34.965Z,85.36
2023-03-18T06:07:38.037Z,85.07
2023-03-18T06:08:39.966Z,85.43
2023-03-18T06:09:41.944Z,85.23
2023-03-18T06:10:43.948Z,85.14
2023-03-18T06:11:46.815Z,85.41
2023-03-18T06:12:49.517Z,85.41
2023-03-18T06:13:51.834Z,85.32
2023-03-18T06:14:54.727Z,85.38
2023-03-18T06:15:58.378Z,85.28
2023-03-18T06:17:01.199Z,85.02
2023-03-18T06:18:04.257Z,84.88
2023-03-18T06:19:07.080Z,84.54
2023-03-18T06:20:11.670Z,84.51
2023-03-18T06:21:13.997Z,84.59
2023-03-18T06:22:16.465Z,84.34
2023-03-18T06:23:19.507Z,84.38
2023-03-18T06:24:21.553Z,84.37
2023-03-18T06:25:23.827Z,84.53
2023-03-18T06:26:26.856Z,84.51
2023-03-18T06:27:29.259Z,84.24
2023-03-18T06:28:31.121Z,84.04
2023-03-18T06:29:33.116Z,84.10
2023-03-18T06:30:35.105Z,84.25
2023-03-18T06:31:36.993Z,84.25
2023-03-18T06:32:39.625Z,84.01
2023-03-18T06:33:41.701Z,83.76
2023-03-18T06:34:43.682Z,83.78
2023-03-18T06:35:47.813Z,83.88
2023-03-18T06:36:52.457Z,83.72
2023-03-18T06:37:54.380Z,83.54
2023-03-18T06:38:56.761Z,83.68
2023-03-18T06:39:58.770Z,83.64
2023-03-18T06:41:01.420Z,83.96
2023-03-18T06:42:03.532Z,84.10
2023-03-18T06:43:05.625Z,84.19
2023-03-18T06:44:07.493Z,84.02
2023-03-18T06:45:10.762Z,83.85
2023-03-18T06:46:13.602Z,83.89
2023-03-18T06:47:17.885Z,83.92
2023-03-18T06:48:20.408Z,84.37
2023-03-18T06:49:22.893Z,84.18
2023-03-18T06:50:24.886Z,84.18
2023-03-18T06:51:27.170Z,83.93
2023-03-18T06:52:29.860Z,83.98
2023-03-18T06:53:31.808Z,84.11
2023-03-18T06:54:33.705Z,83.87
2023-03-18T06:55:36.236Z,84.03
2023-03-18T06:56:38.229Z,83.98
2023-03-18T06:57:40.451Z,83.85
2023-03-18T06:58:45.414Z,83.67
2023-03-18T06:59:47.755Z,83.75
2023-03-18T07:00:50.193Z,83.81
2023-03-18T07:01:53.330Z,83.68
2023-03-18T07:02:55.527Z,83.72
2023-03-18T07:03:58.090Z,83.94
2023-03-18T07:05:00.293Z,83.98
2023-03-18T07:06:02.964Z,83.73
2023-03-18T07:07:08.194Z,83.87
2023-03-18T07:08:11.237Z,84.03
2023-03-18T07:09:14.933Z,84.17
2023-03-18T07:11:32.937Z,84.45
2023-03-18T07:12:35.453Z,84.34
2023-03-18T07:13:38.859Z,84.17
2023-03-18T07:14:41.019Z,84.10
2023-03-18T07:15:44.402Z,83.83
2023-03-18T07:16:46.848Z,84.11
2023-03-18T07:17:50.333Z,84.27
2023-03-18T07:18:52.279Z,84.35
2023-03-18T07:19:54.319Z,84.38
2023-03-18T07:20:56.443Z,84.46
2023-03-18T07:21:59.283Z,84.18
2023-03-18T07:23:01.406Z,84.03
2023-03-18T07:24:05.084Z,83.98
2023-03-18T07:25:07.880Z,83.82
2023-03-18T07:26:10.785Z,83.62
2023-03-18T07:27:12.947Z,83.63
2023-03-18T07:28:14.994Z,83.75
2023-03-18T07:29:17.588Z,83.61
2023-03-18T07:30:19.898Z,83.17
2023-03-18T07:31:21.931Z,82.96
2023-03-18T07:32:23.920Z,82.65
2023-03-18T07:33:25.996Z,82.48
2023-03-18T07:34:27.938Z,82.67
2023-03-18T07:35:29.970Z,83.40
2023-03-18T07:36:32.241Z,83.32
2023-03-18T07:37:34.207Z,82.95
2023-03-18T07:38:36.342Z,82.69
2023-03-18T07:39:38.204Z,82.75
2023-03-18T07:40:41.220Z,82.46
2023-03-18T07:41:43.103Z,82.54
2023-03-18T07:42:45.012Z,82.45
2023-03-18T07:43:46.870Z,82.30
2023-03-18T07:44:48.878Z,82.13
2023-03-18T07:45:50.913Z,81.91
2023-03-18T07:46:53.111Z,81.94
2023-03-18T07:47:55.168Z,82.00
2023-03-18T07:48:57.044Z,81.75
2023-03-18T07:49:59.011Z,81.75
2023-03-18T07:51:02.011Z,81.63
2023-03-18T07:52:04.384Z,81.48
2023-03-18T07:53:06.900Z,81.54
2023-03-18T07:54:09.765Z,81.20
2023-03-18T07:55:12.397Z,81.01
2023-03-18T07:56:14.988Z,80.86
2023-03-18T07:57:18.141Z,81.29
2023-03-18T07:58:20.427Z,81.11
2023-03-18T07:59:22.617Z,80.88
2023-03-18T08:00:24.946Z,80.49
2023-03-18T08:01:27.126Z,79.98
2023-03-18T08:02:29.009Z,79.98
2023-03-18T08:03:31.589Z,80.42
2023-03-18T08:04:34.134Z,80.29
2023-03-18T08:05:36.396Z,80.07
2023-03-18T08:06:38.392Z,80.17
2023-03-18T08:07:40.383Z,80.19
2023-03-18T08:08:42.876Z,80.13
2023-03-18T08:09:44.838Z,80.04
2023-03-18T08:10:46.902Z,80.07
2023-03-18T08:11:49.246Z,79.64
2023-03-18T08:12:53.813Z,80.04
2023-03-18T08:13:55.896Z,80.10
2023-03-18T08:14:57.792Z,79.86
2023-03-18T08:16:00.369Z,79.85
2023-03-18T08:17:03.123Z,79.85
2023-03-18T08:18:08.781Z,79.57
2023-03-18T08:19:10.350Z,79.91
2023-03-18T08:20:14.689Z,79.82
2023-03-18T08:21:17.070Z,79.94
2023-03-18T08:22:19.608Z,79.31
2023-03-18T08:23:22.878Z,79.01
2023-03-18T08:24:25.042Z,79.24
2023-03-18T08:25:27.018Z,80.06
2023-03-18T08:26:29.016Z,80.39
2023-03-18T08:27:32.129Z,80.20
2023-03-18T08:28:34.285Z,80.39
2023-03-18T08:29:36.285Z,79.92
2023-03-18T08:30:39.239Z,79.44
2023-03-18T08:31:41.650Z,79.25
2023-03-18T08:32:44.529Z,79.39
2023-03-18T08:33:47.783Z,78.65
2023-03-18T08:34:49.718Z,79.29
2023-03-18T08:35:52.654Z,78.76
2023-03-18T08:36:54.626Z,78.35
2023-03-18T08:37:56.537Z,78.20
2023-03-18T08:38:59.367Z,78.33
2023-03-18T08:40:01.806Z,78.27
2023-03-18T08:41:04.025Z,77.99
2023-03-18T08:42:06.856Z,78.38
2023-03-18T08:43:10.333Z,78.16
2023-03-18T08:44:12.431Z,77.85
2023-03-18T08:45:14.939Z,77.70
2023-03-18T08:46:18.433Z,78.17
2023-03-18T08:47:20.584Z,78.41
2023-03-18T08:48:23.791Z,78.38
2023-03-18T08:49:25.856Z,78.67
2023-03-18T08:50:28.078Z,78.80
2023-03-18T08:51:30.765Z,78.60
2023-03-18T08:52:32.651Z,78.07
2023-03-18T08:53:34.996Z,78.14
2023-03-18T08:54:36.890Z,78.41
2023-03-18T08:55:38.831Z,78.93
2023-03-18T08:56:40.855Z,78.65
2023-03-18T08:57:43.043Z,78.55
2023-03-18T08:58:45.156Z,78.53
2023-03-18T08:59:47.436Z,78.22
2023-03-18T09:00:49.615Z,78.38
2023-03-18T09:01:51.520Z,78.27
2023-03-18T09:02:53.905Z,78.30
2023-03-18T09:03:55.857Z,78.19
2023-03-18T09:04:57.891Z,78.52
2023-03-18T09:06:00.286Z,78.47
2023-03-18T09:07:02.828Z,79.01
2023-03-18T09:08:05.682Z,78.90
2023-03-18T09:09:08.481Z,78.87
2023-03-18T09:10:13.732Z,78.52
2023-03-18T09:11:17.387Z,79.04
2023-03-18T09:12:19.331Z,79.28
2023-03-18T09:13:22.326Z,78.83
2023-03-18T09:14:24.234Z,78.71
2023-03-18T09:15:26.263Z,78.80
2023-03-18T09:16:28.266Z,78.35
2023-03-18T09:17:45.251Z,78.33
2023-03-18T09:18:34.984Z,78.40
2023-03-18T09:19:36.934Z,78.72
2023-03-18T09:20:40.758Z,78.39
2023-03-18T09:21:42.672Z,78.14
2023-03-18T09:22:46.581Z,78.30
2023-03-18T09:23:48.531Z,78.30
2023-03-18T09:24:50.489Z,78.81
2023-03-18T09:25:52.600Z,79.01
2023-03-18T09:26:57.511Z,78.71
2023-03-18T09:28:00.012Z,78.50
2023-03-18T09:29:01.900Z,78.16
2023-03-18T09:30:06.902Z,78.00
2023-03-18T09:31:09.090Z,77.70
2023-03-18T09:32:11.009Z,78.10
2023-03-18T09:33:13.090Z,78.58
2023-03-18T09:34:15.066Z,78.62
2023-03-18T09:35:16.938Z,78.12
2023-03-18T09:36:18.981Z,78.11
2023-03-18T09:37:21.452Z,77.77
2023-03-18T09:38:23.798Z,77.97
2023-03-18T09:39:25.691Z,78.05
2023-03-18T09:40:30.812Z,77.90
2023-03-18T09:41:58.444Z,78.45
2023-03-18T09:43:25.627Z,78.89
2023-03-18T09:44:33.296Z,78.89
2023-03-18T09:45:39.083Z,78.73
2023-03-18T09:47:10.831Z,78.54
2023-03-18T09:48:36.184Z,78.26
2023-03-18T09:49:50.791Z,78.11
2023-03-18T09:51:11.203Z,78.15
2023-03-18T09:52:16.840Z,77.95
2023-03-18T09:53:42.449Z,78.50
2023-03-18T09:54:57.351Z,78.44
2023-03-18T09:56:02.114Z,78.78
2023-03-18T09:57:07.195Z,78.23
2023-03-18T09:59:38.299Z,78.20
2023-03-18T10:00:41.941Z,77.94
2023-03-18T10:01:48.632Z,77.48
2023-03-18T10:02:54.313Z,77.40
2023-03-18T10:04:11.849Z,77.59
2023-03-18T10:05:36.240Z,77.66
2023-03-18T10:06:42.369Z,77.78
2023-03-18T10:07:48.897Z,78.32
2023-03-18T10:09:16.549Z,77.60
2023-03-18T10:10:25.519Z,76.99
2023-03-18T10:11:37.347Z,77.08
2023-03-18T10:12:45.788Z,77.14
2023-03-18T10:14:00.754Z,77.39
2023-03-18T10:15:18.719Z,77.28
2023-03-18T10:16:24.586Z,76.62
2023-03-18T10:17:33.778Z,76.55
2023-03-18T10:18:39.055Z,76.79
2023-03-18T10:19:47.455Z,76.78
2023-03-18T10:20:59.302Z,76.81
2023-03-18T10:22:04.998Z,76.63
2023-03-18T10:23:26.428Z,77.28
2023-03-18T10:24:44.409Z,76.71
2023-03-18T10:27:11.083Z,76.30
2023-03-18T10:28:48.894Z,77.33
2023-03-18T10:30:03.621Z,76.84
2023-03-18T10:31:24.124Z,76.58
2023-03-18T10:32:48.664Z,76.24
2023-03-18T10:33:43.111Z,76.19
2023-03-18T10:35:05.629Z,76.15
2023-03-18T10:36:23.160Z,75.79
2023-03-18T10:37:38.170Z,75.46
2023-03-18T10:38:52.243Z,75.20
2023-03-18T10:39:55.180Z,75.39
2023-03-18T10:40:58.649Z,75.34
2023-03-18T10:42:04.368Z,75.37
2023-03-18T10:44:35.050Z,75.79
2023-03-18T10:45:37.432Z,75.77
2023-03-18T10:46:41.355Z,75.57
2023-03-18T10:47:52.947Z,75.66
2023-03-18T10:49:08.127Z,75.67
2023-03-18T10:50:20.263Z,75.63
2023-03-18T10:51:37.946Z,75.90
2023-03-18T10:52:46.727Z,75.61
2023-03-18T10:54:09.086Z,75.19
2023-03-18T10:55:15.240Z,75.09
2023-03-18T10:56:18.053Z,75.16
2023-03-18T10:57:21.292Z,74.67
2023-03-18T10:58:23.327Z,74.61
2023-03-18T10:59:27.577Z,74.47
2023-03-18T11:00:34.781Z,74.38
2023-03-18T11:01:39.115Z,74.40
2023-03-18T11:02:41.948Z,74.46
2023-03-18T11:03:50.563Z,74.21
2023-03-18T11:05:26.840Z,73.85
2023-03-18T11:06:59.353Z,73.89
2023-03-18T11:08:06.796Z,74.24
2023-03-18T11:09:12.239Z,74.16
2023-03-18T11:10:18.126Z,74.16
2023-03-18T11:11:29.904Z,74.15
2023-03-18T11:12:31.880Z,73.60
2023-03-18T11:13:33.796Z,73.50
2023-03-18T11:14:36.587Z,73.56
2023-03-18T11:15:42.263Z,73.03
2023-03-18T11:17:00.301Z,73.03
2023-03-18T11:18:03.164Z,72.82
2023-03-18T11:19:08.727Z,72.90
2023-03-18T11:20:23.997Z,72.94
2023-03-18T11:21:27.299Z,73.13
2023-03-18T11:22:30.192Z,72.76
2023-03-18T11:23:35.401Z,72.68
2023-03-18T11:24:38.528Z,72.42
2023-03-18T11:25:44.174Z,72.40
2023-03-18T11:26:50.175Z,73.25
2023-03-18T11:27:58.941Z,73.08
2023-03-18T11:29:13.443Z,73.12
2023-03-18T11:30:33.937Z,73.13
2023-03-18T11:31:30.281Z,72.59
2023-03-18T11:32:34.522Z,72.34
2023-03-18T11:33:36.569Z,72.07
2023-03-18T11:34:38.447Z,72.12
2023-03-18T11:35:46.865Z,72.24
2023-03-18T11:36:55.092Z,72.14
2023-03-18T11:38:00.791Z,71.90
2023-03-18T11:39:05.621Z,71.72
2023-03-18T11:40:17.867Z,71.58
2023-03-18T11:41:24.271Z,71.78
2023-03-18T11:42:26.182Z,71.95
2023-03-18T11:43:28.081Z,71.89
2023-03-18T11:44:32.744Z,71.76
2023-03-18T11:45:56.137Z,71.93
2023-03-18T11:47:13.793Z,71.44
2023-03-18T11:48:26.764Z,71.55
2023-03-18T11:49:30.143Z,71.56
2023-03-18T11:50:41.736Z,71.62
2023-03-18T11:51:47.412Z,71.72
2023-03-18T11:53:04.963Z,71.58
2023-03-18T11:54:19.720Z,71.31
2023-03-18T11:55:43.453Z,70.90
2023-03-18T11:58:35.375Z,70.88
2023-03-18T11:59:57.803Z,71.03
2023-03-18T12:01:13.372Z,70.82
2023-03-18T12:02:54.389Z,69.94
2023-03-18T12:04:17.006Z,70.29
2023-03-18T12:05:44.294Z,70.19
2023-03-18T12:06:50.067Z,69.64
2023-03-18T12:07:58.534Z,69.92
2023-03-18T12:09:24.000Z,69.65
2023-03-18T12:10:29.870Z,69.75
2023-03-18T12:12:10.467Z,69.08
2023-03-18T12:13:21.903Z,69.48
2023-03-18T12:14:48.516Z,69.20
2023-03-18T12:16:06.463Z,69.19
2023-03-18T12:17:35.842Z,69.44
2023-03-18T12:18:53.456Z,69.65
2023-03-18T12:20:14.655Z,68.96
2023-03-18T12:21:51.746Z,69.35
2023-03-18T12:23:05.499Z,69.89
2023-03-18T12:24:23.686Z,69.82
2023-03-18T12:25:49.014Z,69.50
2023-03-18T12:26:57.310Z,70.19
2023-03-18T12:28:14.895Z,70.09
2023-03-18T12:29:29.608Z,69.84
2023-03-18T12:30:47.674Z,70.02
2023-03-18T12:31:53.463Z,69.71
2023-03-18T12:33:05.467Z,69.22
2023-03-18T12:35:49.938Z,68.78
2023-03-18T12:36:58.445Z,68.33
2023-03-18T12:38:09.952Z,68.33
2023-03-18T12:39:24.528Z,68.10
2023-03-18T12:40:30.809Z,68.56
2023-03-18T12:41:39.825Z,68.52
2023-03-18T12:42:57.691Z,68.65
2023-03-18T12:44:06.087Z,68.50
2023-03-18T12:45:11.564Z,68.01
2023-03-18T12:46:35.720Z,67.84
2023-03-18T12:47:47.704Z,67.80
2023-03-18T12:48:53.408Z,67.80
2023-03-18T12:50:07.998Z,67.84
2023-03-18T12:51:16.475Z,67.71
2023-03-18T12:52:22.395Z,67.71
2023-03-18T12:53:30.976Z,67.89
2023-03-18T12:54:42.439Z,67.89
2023-03-18T12:55:49.366Z,68.40
2023-03-18T12:56:55.151Z,68.55
2023-03-18T12:58:03.868Z,68.80
2023-03-18T12:59:09.583Z,68.54
2023-03-18T13:00:21.796Z,68.60
2023-03-18T13:01:37.000Z,68.40
2023-03-18T13:03:07.571Z,68.17
2023-03-18T13:04:16.533Z,68.40
2023-03-18T13:05:27.767Z,68.43
2023-03-18T13:06:40.678Z,68.43
2023-03-18T13:07:49.397Z,68.71
2023-03-18T13:08:57.884Z,68.71
2023-03-18T13:10:09.789Z,68.70
2023-03-18T13:11:24.438Z,69.50
2023-03-18T13:12:36.152Z,69.50
2023-03-18T13:13:41.865Z,69.31
2023-03-18T13:14:53.757Z,69.68
2023-03-18T13:15:56.491Z,69.19
2023-03-18T13:17:00.308Z,69.14
2023-03-18T13:18:15.201Z,68.96
2023-03-18T13:19:17.277Z,68.83
2023-03-18T13:20:25.404Z,68.37
2023-03-18T13:21:31.368Z,68.81
2023-03-18T13:22:45.541Z,68.88
2023-03-18T13:23:51.274Z,68.88
2023-03-18T13:25:00.025Z,68.50
2023-03-18T13:26:23.984Z,68.56
2023-03-18T13:27:41.377Z,68.62
2023-03-18T13:28:50.071Z,68.65
2023-03-18T13:31:07.385Z,68.58
2023-03-18T13:32:50.988Z,68.90
2023-03-18T13:34:09.128Z,69.10
2023-03-18T13:35:37.936Z,68.66
2023-03-18T13:37:00.912Z,67.97
2023-03-18T13:38:23.831Z,67.97
2023-03-18T13:39:56.571Z,68.17
2023-03-18T13:41:31.264Z,68.68
2023-03-18T13:42:35.797Z,68.83
2023-03-18T13:43:44.760Z,68.85
2023-03-18T13:45:14.717Z,68.45
2023-03-18T13:46:23.979Z,68.28
2023-03-18T13:47:29.376Z,67.93
2023-03-18T13:48:33.940Z,67.93
2023-03-18T13:49:39.386Z,68.06
2023-03-18T13:50:45.409Z,67.88
2023-03-18T13:51:56.906Z,67.88
2023-03-18T13:53:01.363Z,68.04
2023-03-18T13:54:07.032Z,68.15
2023-03-18T13:55:31.671Z,68.07
2023-03-18T13:56:43.636Z,68.03
2023-03-18T13:57:49.216Z,67.87
2023-03-18T13:58:51.287Z,67.87
2023-03-18T14:00:27.531Z,67.88
2023-03-18T14:01:32.799Z,67.72
2023-03-18T14:02:43.663Z,67.72
2023-03-18T14:03:49.394Z,67.93
2023-03-18T14:04:52.069Z,67.47
2023-03-18T14:06:24.642Z,67.75
2023-03-18T14:07:27.831Z,67.37
2023-03-18T14:08:41.576Z,67.37
2023-03-18T14:09:52.824Z,67.12
2023-03-18T14:11:13.312Z,67.54
2023-03-18T14:12:30.766Z,67.10
2023-03-18T14:13:33.498Z,66.75
2023-03-18T14:14:45.588Z,66.38
2023-03-18T14:15:47.691Z,66.08
2023-03-18T14:16:52.331Z,66.15
2023-03-18T14:17:59.485Z,66.19
2023-03-18T14:19:05.289Z,65.60